sensor_id;sensor_type;location;lat;lon;timestamp;pressure;altitude;pressure_sealevel;temperature;humidity
63556;BME280;49700;48.072;7.800;2022-10-31T00:00:41;99941.31;;;12.39;nan
63556;BME280;49700;48.072;7.800;2022-10-31T00:03:06;99937.84;;;12.38;nan
63556;BME280;49700;48.072;7.800;2022-10-31T00:05:32;99943.22;;;12.37;nan
63556;BME280;49700;48.072;7.800;2022-10-31T00:07:57;99939.84;;;12.35;nan
63556;BME280;49700;48.072;7.800;2022-10-31T00:10:22;99940.97;;;12.31;nan
63556;BME280;49700;48.072;7.800;2022-10-31T00:12:48;99937.72;;;12.27;nan
63556;BME280;49700;48.072;7.800;2022-10-31T00:15:13;99940.25;;;12.29;nan
63556;BME280;49700;48.072;7.800;2022-10-31T00:17:39;99931.41;;;12.30;nan
63556;BME280;49700;48.072;7.800;2022-10-31T00:20:05;99940.91;;;12.32;nan
63556;BME280;49700;48.072;7.800;2022-10-31T00:22:30;99944.38;;;12.33;nan
63556;BME280;49700;48.072;7.800;2022-10-31T00:24:56;99944.28;;;12.34;nan
63556;BME280;49700;48.072;7.800;2022-10-31T00:27:21;99937.22;;;12.35;nan
63556;BME280;49700;48.072;7.800;2022-10-31T00:29:46;99942.78;;;12.30;nan
63556;BME280;49700;48.072;7.800;2022-10-31T00:32:12;99937.91;;;12.24;nan
63556;BME280;49700;48.072;7.800;2022-10-31T00:34:37;99941.03;;;12.16;nan
63556;BME280;49700;48.072;7.800;2022-10-31T00:37:03;99938.06;;;12.08;nan
63556;BME280;49700;48.072;7.800;2022-10-31T00:39:29;99939.38;;;12.01;nan
63556;BME280;49700;48.072;7.800;2022-10-31T00:41:54;99933.69;;;11.94;nan
63556;BME280;49700;48.072;7.800;2022-10-31T00:44:19;99930.50;;;11.89;nan
63556;BME280;49700;48.072;7.800;2022-10-31T00:46:45;99924.41;;;11.89;nan
63556;BME280;49700;48.072;7.800;2022-10-31T00:49:10;99929.66;;;11.89;nan
63556;BME280;49700;48.072;7.800;2022-10-31T00:51:37;99933.97;;;11.90;nan
63556;BME280;49700;48.072;7.800;2022-10-31T00:54:03;99927.88;;;11.89;nan
63556;BME280;49700;48.072;7.800;2022-10-31T00:56:28;99925.25;;;11.89;nan
63556;BME280;49700;48.072;7.800;2022-10-31T00:58:54;99930.41;;;11.91;nan
63556;BME280;49700;48.072;7.800;2022-10-31T01:01:20;99930.41;;;11.91;nan
63556;BME280;49700;48.072;7.800;2022-10-31T01:03:45;99927.88;;;11.89;nan
63556;BME280;49700;48.072;7.800;2022-10-31T01:06:13;99925.16;;;11.91;nan
63556;BME280;49700;48.072;7.800;2022-10-31T01:08:39;99924.19;;;11.92;nan
63556;BME280;49700;48.072;7.800;2022-10-31T01:13:35;99925.16;;;11.91;nan
63556;BME280;49700;48.072;7.800;2022-10-31T01:16:03;99923.44;;;11.90;nan
63556;BME280;49700;48.072;7.800;2022-10-31T01:18:30;99922.59;;;11.89;nan
63556;BME280;49700;48.072;7.800;2022-10-31T01:21:05;99918.19;;;11.90;nan
63556;BME280;49700;48.072;7.800;2022-10-31T01:23:31;99927.03;;;11.89;nan
63556;BME280;49700;48.072;7.800;2022-10-31T01:26:09;99921.84;;;11.87;nan
63556;BME280;49700;48.072;7.800;2022-10-31T01:28:37;99917.53;;;11.86;nan
63556;BME280;49700;48.072;7.800;2022-10-31T01:31:06;99913.16;;;11.85;nan
63556;BME280;49700;48.072;7.800;2022-10-31T01:33:33;99916.88;;;11.83;nan
63556;BME280;49700;48.072;7.800;2022-10-31T01:35:59;99917.03;;;11.80;nan
63556;BME280;49700;48.072;7.800;2022-10-31T01:38:25;99920.81;;;11.76;nan
63556;BME280;49700;48.072;7.800;2022-10-31T01:40:51;99917.44;;;11.73;nan
63556;BME280;49700;48.072;7.800;2022-10-31T01:43:16;99912.19;;;11.73;nan
63556;BME280;49700;48.072;7.800;2022-10-31T01:45:46;99924.38;;;11.74;nan
63556;BME280;49700;48.072;7.800;2022-10-31T01:48:18;99920.91;;;11.74;nan
63556;BME280;49700;48.072;7.800;2022-10-31T01:50:46;99920.28;;;11.70;nan
63556;BME280;49700;48.072;7.800;2022-10-31T01:53:15;99915.97;;;11.69;nan
63556;BME280;49700;48.072;7.800;2022-10-31T01:55:44;99909.81;;;11.69;nan
63556;BME280;49700;48.072;7.800;2022-10-31T01:58:18;99911.63;;;11.68;nan
63556;BME280;49700;48.072;7.800;2022-10-31T02:00:47;99910.69;;;11.69;nan
63556;BME280;49700;48.072;7.800;2022-10-31T02:03:15;99909.00;;;11.68;nan
63556;BME280;49700;48.072;7.800;2022-10-31T02:05:41;99895.28;;;11.63;nan
63556;BME280;49700;48.072;7.800;2022-10-31T02:10:43;99906.13;;;11.59;nan
63556;BME280;49700;48.072;7.800;2022-10-31T02:13:09;99903.56;;;11.57;nan
63556;BME280;49700;48.072;7.800;2022-10-31T02:15:44;99899.06;;;11.59;nan
63556;BME280;49700;48.072;7.800;2022-10-31T02:18:10;99899.06;;;11.59;nan
63556;BME280;49700;48.072;7.800;2022-10-31T02:20:55;99899.91;;;11.60;nan
63556;BME280;49700;48.072;7.800;2022-10-31T02:26:17;99907.78;;;11.60;nan
63556;BME280;49700;48.072;7.800;2022-10-31T02:34:52;99888.72;;;11.56;nan
63556;BME280;49700;48.072;7.800;2022-10-31T02:40:09;99894.91;;;11.55;nan
63556;BME280;49700;48.072;7.800;2022-10-31T02:43:19;99889.09;;;11.50;nan
63556;BME280;49700;48.072;7.800;2022-10-31T02:46:02;99886.78;;;11.45;nan
63556;BME280;49700;48.072;7.800;2022-10-31T02:48:33;99897.50;;;11.42;nan
63556;BME280;49700;48.072;7.800;2022-10-31T02:51:04;99889.03;;;11.37;nan
63556;BME280;49700;48.072;7.800;2022-10-31T02:53:34;99891.88;;;11.34;nan
63556;BME280;49700;48.072;7.800;2022-10-31T02:56:05;99891.00;;;11.34;nan
63556;BME280;49700;48.072;7.800;2022-10-31T02:58:36;99891.88;;;11.34;nan
63556;BME280;49700;48.072;7.800;2022-10-31T03:09:24;99883.31;;;11.30;nan
63556;BME280;49700;48.072;7.800;2022-10-31T03:12:21;99879.38;;;11.23;nan
63556;BME280;49700;48.072;7.800;2022-10-31T03:14:50;99873.56;;;11.18;nan
63556;BME280;49700;48.072;7.800;2022-10-31T03:17:23;99880.69;;;11.16;nan
63556;BME280;49700;48.072;7.800;2022-10-31T03:19:54;99878.06;;;11.16;nan
63556;BME280;49700;48.072;7.800;2022-10-31T03:22:24;99884.09;;;11.18;nan
63556;BME280;49700;48.072;7.800;2022-10-31T03:24:51;99878.81;;;11.18;nan
63556;BME280;49700;48.072;7.800;2022-10-31T03:27:24;99875.25;;;11.19;nan
63556;BME280;49700;48.072;7.800;2022-10-31T03:29:56;99874.47;;;11.17;nan
63556;BME280;49700;48.072;7.800;2022-10-31T03:32:29;99870.19;;;11.16;nan
63556;BME280;49700;48.072;7.800;2022-10-31T03:34:59;99870.06;;;11.18;nan
63556;BME280;49700;48.072;7.800;2022-10-31T03:37:29;99863.03;;;11.18;nan
63556;BME280;49700;48.072;7.800;2022-10-31T03:39:58;99868.09;;;11.21;nan
63556;BME280;49700;48.072;7.800;2022-10-31T03:42:28;99869.78;;;11.22;nan
63556;BME280;49700;48.072;7.800;2022-10-31T03:44:58;99870.53;;;11.24;nan
63556;BME280;49700;48.072;7.800;2022-10-31T03:47:26;99866.13;;;11.25;nan
63556;BME280;49700;48.072;7.800;2022-10-31T03:49:52;99868.69;;;11.26;nan
63556;BME280;49700;48.072;7.800;2022-10-31T03:52:42;99871.09;;;11.29;nan
63556;BME280;49700;48.072;7.800;2022-10-31T03:55:43;99863.97;;;11.32;nan
63556;BME280;49700;48.072;7.800;2022-10-31T03:58:21;99868.28;;;11.33;nan
63556;BME280;49700;48.072;7.800;2022-10-31T04:00:51;99862.06;;;11.34;nan
63556;BME280;49700;48.072;7.800;2022-10-31T04:03:22;99863.78;;;11.35;nan
63556;BME280;49700;48.072;7.800;2022-10-31T04:05:53;99861.88;;;11.37;nan
63556;BME280;49700;48.072;7.800;2022-10-31T04:08:23;99860.94;;;11.38;nan
63556;BME280;49700;48.072;7.800;2022-10-31T04:10:51;99858.41;;;11.36;nan
63556;BME280;49700;48.072;7.800;2022-10-31T04:13:22;99863.78;;;11.35;nan
63556;BME280;49700;48.072;7.800;2022-10-31T04:15:57;99861.22;;;11.33;nan
63556;BME280;49700;48.072;7.800;2022-10-31T04:18:25;99857.75;;;11.33;nan
63556;BME280;49700;48.072;7.800;2022-10-31T04:21:01;99860.41;;;11.33;nan
63556;BME280;49700;48.072;7.800;2022-10-31T04:23:28;99864.13;;;11.28;nan
63556;BME280;49700;48.072;7.800;2022-10-31T04:25:54;99861.16;;;11.20;nan
63556;BME280;49700;48.072;7.800;2022-10-31T04:28:19;99863.25;;;11.15;nan
63556;BME280;49700;48.072;7.800;2022-10-31T04:30:45;99868.59;;;11.14;nan
63556;BME280;49700;48.072;7.800;2022-10-31T04:33:10;99859.00;;;11.13;nan
63556;BME280;49700;48.072;7.800;2022-10-31T04:35:36;99854.59;;;11.13;nan
63556;BME280;49700;48.072;7.800;2022-10-31T04:38:02;99865.94;;;11.14;nan
63556;BME280;49700;48.072;7.800;2022-10-31T04:40:28;99863.31;;;11.14;nan
63556;BME280;49700;48.072;7.800;2022-10-31T04:42:54;99852.06;;;11.12;nan
63556;BME280;49700;48.072;7.800;2022-10-31T04:45:19;99854.94;;;11.07;nan
63556;BME280;49700;48.072;7.800;2022-10-31T04:47:47;99858.72;;;11.03;nan
63556;BME280;49700;48.072;7.800;2022-10-31T04:50:12;99857.97;;;11.01;nan
63556;BME280;49700;48.072;7.800;2022-10-31T04:52:42;99863.16;;;11.02;nan
63556;BME280;49700;48.072;7.800;2022-10-31T04:55:11;99868.28;;;11.04;nan
63556;BME280;49700;48.072;7.800;2022-10-31T04:57:54;99859.69;;;11.02;nan
63556;BME280;49700;48.072;7.800;2022-10-31T05:00:23;99855.53;;;10.98;nan
63556;BME280;49700;48.072;7.800;2022-10-31T05:02:51;99859.31;;;10.94;nan
63556;BME280;49700;48.072;7.800;2022-10-31T05:05:19;99857.72;;;10.91;nan
63556;BME280;49700;48.072;7.800;2022-10-31T05:07:46;99859.75;;;10.86;nan
63556;BME280;49700;48.072;7.800;2022-10-31T05:10:19;99862.47;;;10.84;nan
63556;BME280;49700;48.072;7.800;2022-10-31T05:12:53;99860.78;;;10.83;nan
63556;BME280;49700;48.072;7.800;2022-10-31T05:15:37;99862.41;;;10.86;nan
63556;BME280;49700;48.072;7.800;2022-10-31T05:18:26;99857.97;;;10.87;nan
63556;BME280;49700;48.072;7.800;2022-10-31T05:21:30;99857.31;;;10.83;nan
63556;BME280;49700;48.072;7.800;2022-10-31T05:24:01;99853.84;;;10.82;nan
63556;BME280;49700;48.072;7.800;2022-10-31T05:26:27;99852.91;;;10.83;nan
63556;BME280;49700;48.072;7.800;2022-10-31T05:28:53;99857.03;;;10.88;nan
63556;BME280;49700;48.072;7.800;2022-10-31T05:31:19;99862.19;;;10.89;nan
63556;BME280;49700;48.072;7.800;2022-10-31T05:33:44;99859.56;;;10.89;nan
63556;BME280;49700;48.072;7.800;2022-10-31T05:36:19;99857.88;;;10.88;nan
63556;BME280;49700;48.072;7.800;2022-10-31T05:38:51;99859.84;;;10.84;nan
63556;BME280;49700;48.072;7.800;2022-10-31T05:41:24;99858.25;;;10.82;nan
63556;BME280;49700;48.072;7.800;2022-10-31T05:43:51;99854.03;;;10.79;nan
63556;BME280;49700;48.072;7.800;2022-10-31T05:46:21;99856.56;;;10.81;nan
63556;BME280;49700;48.072;7.800;2022-10-31T05:49:05;99845.31;;;10.79;nan
63556;BME280;49700;48.072;7.800;2022-10-31T05:51:30;99853.09;;;10.80;nan
63556;BME280;49700;48.072;7.800;2022-10-31T05:53:56;99852.16;;;10.81;nan
63556;BME280;49700;48.072;7.800;2022-10-31T05:56:22;99851.19;;;10.82;nan
63556;BME280;49700;48.072;7.800;2022-10-31T05:58:48;99854.69;;;10.83;nan
63556;BME280;49700;48.072;7.800;2022-10-31T06:01:13;99858.16;;;10.83;nan
63556;BME280;49700;48.072;7.800;2022-10-31T06:03:39;99863.50;;;10.82;nan
63556;BME280;49700;48.072;7.800;2022-10-31T06:06:07;99854.78;;;10.81;nan
63556;BME280;49700;48.072;7.800;2022-10-31T06:08:40;99857.22;;;10.84;nan
63556;BME280;49700;48.072;7.800;2022-10-31T06:11:14;99853.56;;;10.87;nan
63556;BME280;49700;48.072;7.800;2022-10-31T06:14:05;99849.44;;;10.83;nan
63556;BME280;49700;48.072;7.800;2022-10-31T06:16:39;99852.06;;;10.83;nan
63556;BME280;49700;48.072;7.800;2022-10-31T06:19:27;99847.66;;;10.83;nan
63556;BME280;49700;48.072;7.800;2022-10-31T06:21:52;99852.06;;;10.83;nan
63556;BME280;49700;48.072;7.800;2022-10-31T06:24:18;99853.09;;;10.80;nan
63556;BME280;49700;48.072;7.800;2022-10-31T06:26:59;99843.31;;;10.82;nan
63556;BME280;49700;48.072;7.800;2022-10-31T06:29:24;99851.88;;;10.86;nan
63556;BME280;49700;48.072;7.800;2022-10-31T06:32:05;99851.88;;;10.86;nan
63556;BME280;49700;48.072;7.800;2022-10-31T06:34:35;99857.03;;;10.88;nan
63556;BME280;49700;48.072;7.800;2022-10-31T06:37:01;99851.56;;;10.91;nan
63556;BME280;49700;48.072;7.800;2022-10-31T06:39:27;99857.41;;;10.96;nan
63556;BME280;49700;48.072;7.800;2022-10-31T06:41:53;99856.28;;;11.00;nan
63556;BME280;49700;48.072;7.800;2022-10-31T06:44:20;99857.69;;;11.05;nan
63556;BME280;49700;48.072;7.800;2022-10-31T06:47:08;99851.13;;;11.13;nan
63556;BME280;49700;48.072;7.800;2022-10-31T06:49:52;99855.16;;;11.18;nan
63556;BME280;49700;48.072;7.800;2022-10-31T06:52:21;99857.59;;;11.21;nan
63556;BME280;49700;48.072;7.800;2022-10-31T06:54:49;99847.84;;;11.23;nan
63556;BME280;49700;48.072;7.800;2022-10-31T06:57:14;99846.78;;;11.26;nan
63556;BME280;49700;48.072;7.800;2022-10-31T06:59:41;99851.88;;;11.29;nan
63556;BME280;49700;48.072;7.800;2022-10-31T07:02:28;99852.31;;;11.36;nan
63556;BME280;49700;48.072;7.800;2022-10-31T07:04:55;99847.41;;;11.44;nan
63556;BME280;49700;48.072;7.800;2022-10-31T07:07:21;99854.91;;;11.50;nan
63556;BME280;49700;48.072;7.800;2022-10-31T07:09:47;99853.56;;;11.57;nan
63556;BME280;49700;48.072;7.800;2022-10-31T07:12:15;99855.09;;;11.61;nan
63556;BME280;49700;48.072;7.800;2022-10-31T07:14:48;99856.56;;;11.65;nan
63556;BME280;49700;48.072;7.800;2022-10-31T07:17:13;99859.00;;;11.68;nan
63556;BME280;49700;48.072;7.800;2022-10-31T07:19:42;99857.88;;;11.72;nan
63556;BME280;49700;48.072;7.800;2022-10-31T07:22:08;99860.84;;;11.81;nan
63556;BME280;49700;48.072;7.800;2022-10-31T07:24:35;99860.28;;;11.90;nan
63556;BME280;49700;48.072;7.800;2022-10-31T07:27:24;99869.34;;;11.99;nan
63556;BME280;49700;48.072;7.800;2022-10-31T07:29:49;99864.44;;;12.07;nan
63556;BME280;49700;48.072;7.800;2022-10-31T07:32:15;99866.34;;;12.17;nan
63556;BME280;49700;48.072;7.800;2022-10-31T07:34:47;99877.88;;;12.29;nan
63556;BME280;49700;48.072;7.800;2022-10-31T07:37:15;99881.69;;;12.38;nan
63556;BME280;49700;48.072;7.800;2022-10-31T07:39:40;99877.50;;;12.48;nan
63556;BME280;49700;48.072;7.800;2022-10-31T07:42:06;99875.94;;;12.58;nan
63556;BME280;49700;48.072;7.800;2022-10-31T07:44:32;99871.69;;;12.69;nan
63556;BME280;49700;48.072;7.800;2022-10-31T07:47:16;99872.97;;;12.76;nan
63556;BME280;49700;48.072;7.800;2022-10-31T07:50:05;99866.97;;;12.87;nan
63556;BME280;49700;48.072;7.800;2022-10-31T07:55:42;99874.22;;;13.09;nan
63556;BME280;49700;48.072;7.800;2022-10-31T07:58:13;99872.66;;;13.19;nan
63556;BME280;49700;48.072;7.800;2022-10-31T08:00:41;99875.41;;;13.30;nan
63556;BME280;49700;48.072;7.800;2022-10-31T08:03:13;99876.44;;;13.40;nan
63556;BME280;49700;48.072;7.800;2022-10-31T08:05:59;99874.84;;;13.50;nan
63556;BME280;49700;48.072;7.800;2022-10-31T08:08:43;99876.72;;;13.61;nan
63556;BME280;49700;48.072;7.800;2022-10-31T08:11:08;99873.28;;;13.72;nan
63556;BME280;49700;48.072;7.800;2022-10-31T08:13:34;99880.53;;;13.81;nan
63556;BME280;49700;48.072;7.800;2022-10-31T08:16:00;99885.03;;;13.92;nan
63556;BME280;49700;48.072;7.800;2022-10-31T08:18:30;99877.28;;;14.02;nan
63556;BME280;49700;48.072;7.800;2022-10-31T08:20:56;99875.53;;;14.13;nan
63556;BME280;49700;48.072;7.800;2022-10-31T08:23:22;99873.91;;;14.24;nan
63556;BME280;49700;48.072;7.800;2022-10-31T08:25:47;99872.84;;;14.37;nan
63556;BME280;49700;48.072;7.800;2022-10-31T08:28:14;99867.38;;;14.52;nan
63556;BME280;49700;48.072;7.800;2022-10-31T08:30:41;99870.56;;;14.68;nan
63556;BME280;49700;48.072;7.800;2022-10-31T08:33:25;99864.09;;;14.83;nan
63556;BME280;49700;48.072;7.800;2022-10-31T08:36:09;99864.84;;;14.97;nan
63556;BME280;49700;48.072;7.800;2022-10-31T08:38:49;99855.44;;;15.04;nan
63556;BME280;49700;48.072;7.800;2022-10-31T08:41:16;99854.25;;;15.08;nan
63556;BME280;49700;48.072;7.800;2022-10-31T08:43:41;99847.97;;;15.09;nan
63556;BME280;49700;48.072;7.800;2022-10-31T08:46:07;99849.69;;;15.10;nan
63556;BME280;49700;48.072;7.800;2022-10-31T08:48:32;99847.78;;;15.12;nan
63556;BME280;49700;48.072;7.800;2022-10-31T08:50:59;99848.22;;;15.17;nan
63556;BME280;49700;48.072;7.800;2022-10-31T08:53:26;99845.34;;;15.20;nan
63556;BME280;49700;48.072;7.800;2022-10-31T08:56:07;99838.13;;;15.22;nan
63556;BME280;49700;48.072;7.800;2022-10-31T08:58:34;99835.00;;;15.29;nan
63556;BME280;49700;48.072;7.800;2022-10-31T09:01:01;99838.81;;;15.36;nan
63556;BME280;49700;48.072;7.800;2022-10-31T09:03:28;99828.22;;;15.47;nan
63556;BME280;49700;48.072;7.800;2022-10-31T09:05:56;99826.66;;;15.56;nan
63556;BME280;49700;48.072;7.800;2022-10-31T09:08:22;99820.03;;;15.61;nan
63556;BME280;49700;48.072;7.800;2022-10-31T09:10:48;99825.78;;;15.66;nan
63556;BME280;49700;48.072;7.800;2022-10-31T09:13:20;99817.22;;;15.74;nan
63556;BME280;49700;48.072;7.800;2022-10-31T09:16:04;99821.06;;;15.81;nan
63556;BME280;49700;48.072;7.800;2022-10-31T09:18:31;99814.03;;;15.91;nan
63556;BME280;49700;48.072;7.800;2022-10-31T09:20:58;99807.47;;;16.07;nan
63556;BME280;49700;48.072;7.800;2022-10-31T09:23:26;99801.72;;;16.23;nan
63556;BME280;49700;48.072;7.800;2022-10-31T09:25:53;99798.59;;;16.38;nan
63556;BME280;49700;48.072;7.800;2022-10-31T09:28:36;99787.25;;;16.48;nan
63556;BME280;49700;48.072;7.800;2022-10-31T09:31:06;99781.13;;;16.57;nan
63556;BME280;49700;48.072;7.800;2022-10-31T09:33:52;99784.13;;;16.64;nan
63556;BME280;49700;48.072;7.800;2022-10-31T09:36:39;99788.06;;;16.69;nan
63556;BME280;49700;48.072;7.800;2022-10-31T09:39:25;99802.88;;;16.72;nan
63556;BME280;49700;48.072;7.800;2022-10-31T09:45:18;99798.41;;;16.72;nan
63556;BME280;49700;48.072;7.800;2022-10-31T09:50:46;99790.72;;;16.48;nan
63556;BME280;49700;48.072;7.800;2022-10-31T09:53:51;99803.28;;;16.46;nan
63556;BME280;49700;48.072;7.800;2022-10-31T09:56:22;99799.53;;;16.49;nan
63556;BME280;49700;48.072;7.800;2022-10-31T09:58:58;99791.56;;;16.49;nan
63556;BME280;49700;48.072;7.800;2022-10-31T10:01:46;99792.94;;;16.43;nan
63556;BME280;49700;48.072;7.800;2022-10-31T10:21:36;99778.34;;;16.79;nan
63556;BME280;49700;48.072;7.800;2022-10-31T10:30:16;99783.59;;;17.00;nan
63556;BME280;49700;48.072;7.800;2022-10-31T10:35:38;99782.09;;;17.08;nan
63556;BME280;49700;48.072;7.800;2022-10-31T10:38:13;99782.81;;;17.10;nan
63556;BME280;49700;48.072;7.800;2022-10-31T10:40:41;99777.22;;;17.13;nan
63556;BME280;49700;48.072;7.800;2022-10-31T10:43:23;99785.31;;;17.11;nan
63556;BME280;49700;48.072;7.800;2022-10-31T10:46:24;99787.41;;;17.08;nan
63556;BME280;49700;48.072;7.800;2022-10-31T10:49:32;99794.53;;;17.07;nan
63556;BME280;49700;48.072;7.800;2022-10-31T10:52:11;99796.34;;;17.07;nan
63556;BME280;49700;48.072;7.800;2022-10-31T10:55:14;99790.44;;;17.03;nan
63556;BME280;49700;48.072;7.800;2022-10-31T10:57:58;99778.16;;;17.02;nan
63556;BME280;49700;48.072;7.800;2022-10-31T11:00:32;99775.34;;;17.03;nan
63556;BME280;49700;48.072;7.800;2022-10-31T11:02:59;99776.47;;;17.01;nan
63556;BME280;49700;48.072;7.800;2022-10-31T11:05:35;99778.16;;;17.02;nan
63556;BME280;49700;48.072;7.800;2022-10-31T11:08:03;99775.63;;;17.00;nan
63556;BME280;49700;48.072;7.800;2022-10-31T11:10:29;99772.03;;;17.01;nan
63556;BME280;49700;48.072;7.800;2022-10-31T11:13:27;99765.31;;;17.07;nan
63556;BME280;49700;48.072;7.800;2022-10-31T11:15:59;99749.25;;;17.09;nan
63556;BME280;49700;48.072;7.800;2022-10-31T11:18:28;99742.13;;;17.09;nan
63556;BME280;49700;48.072;7.800;2022-10-31T11:20:57;99730.66;;;17.09;nan
63556;BME280;49700;48.072;7.800;2022-10-31T11:23:24;99728.72;;;17.11;nan
63556;BME280;49700;48.072;7.800;2022-10-31T11:25:54;99729.88;;;17.18;nan
63556;BME280;49700;48.072;7.800;2022-10-31T11:28:20;99736.88;;;17.29;nan
63556;BME280;49700;48.072;7.800;2022-10-31T11:30:52;99719.69;;;17.42;nan
63556;BME280;49700;48.072;7.800;2022-10-31T11:33:40;99710.75;;;17.53;nan
63556;BME280;49700;48.072;7.800;2022-10-31T11:36:23;99693.53;;;17.57;nan
63556;BME280;49700;48.072;7.800;2022-10-31T11:38:50;99696.22;;;17.67;nan
63556;BME280;49700;48.072;7.800;2022-10-31T11:41:30;99693.16;;;17.81;nan
63556;BME280;49700;48.072;7.800;2022-10-31T11:44:01;99687.53;;;18.04;nan
63556;BME280;49700;48.072;7.800;2022-10-31T11:46:39;99678.66;;;18.23;nan
63556;BME280;49700;48.072;7.800;2022-10-31T11:49:13;99681.84;;;18.26;nan
63556;BME280;49700;48.072;7.800;2022-10-31T11:51:40;99679.59;;;18.31;nan
63556;BME280;49700;48.072;7.800;2022-10-31T11:54:06;99675.22;;;18.40;nan
63556;BME280;49700;48.072;7.800;2022-10-31T11:56:43;99664.56;;;18.50;nan
63556;BME280;49700;48.072;7.800;2022-10-31T11:59:18;99641.38;;;18.60;nan
63556;BME280;49700;48.072;7.800;2022-10-31T12:01:48;99632.38;;;18.71;nan
63556;BME280;49700;48.072;7.800;2022-10-31T12:04:14;99627.34;;;18.77;nan
63556;BME280;49700;48.072;7.800;2022-10-31T12:06:44;99620.69;;;18.82;nan
63556;BME280;49700;48.072;7.800;2022-10-31T12:09:23;99617.47;;;18.88;nan
63556;BME280;49700;48.072;7.800;2022-10-31T12:22:28;99611.81;;;19.09;nan
63556;BME280;49700;48.072;7.800;2022-10-31T12:25:21;99608.84;;;19.12;nan
63556;BME280;49700;48.072;7.800;2022-10-31T12:28:02;99606.56;;;19.17;nan
63556;BME280;49700;48.072;7.800;2022-10-31T12:35:44;99585.44;;;19.15;nan
63556;BME280;49700;48.072;7.800;2022-10-31T12:38:24;99580.13;;;19.15;nan
63556;BME280;49700;48.072;7.800;2022-10-31T12:41:06;99571.97;;;19.17;nan
63556;BME280;49700;48.072;7.800;2022-10-31T12:43:45;99560.72;;;19.23;nan
63556;BME280;49700;48.072;7.800;2022-10-31T12:55:11;99549.34;;;19.39;nan
63556;BME280;49700;48.072;7.800;2022-10-31T12:57:42;99554.38;;;19.42;nan
63556;BME280;49700;48.072;7.800;2022-10-31T13:00:15;99552.34;;;19.44;nan
63556;BME280;49700;48.072;7.800;2022-10-31T13:08:07;99540.34;;;19.40;nan
63556;BME280;49700;48.072;7.800;2022-10-31T13:10:44;99535.34;;;19.37;nan
63556;BME280;49700;48.072;7.800;2022-10-31T13:13:19;99532.31;;;19.32;nan
63556;BME280;49700;48.072;7.800;2022-10-31T13:15:50;99529.28;;;19.27;nan
63556;BME280;49700;48.072;7.800;2022-10-31T13:18:46;99526.22;;;19.21;nan
63556;BME280;49700;48.072;7.800;2022-10-31T13:21:21;99531.72;;;19.20;nan
63556;BME280;49700;48.072;7.800;2022-10-31T13:23:51;99530.22;;;19.17;nan
63556;BME280;49700;48.072;7.800;2022-10-31T13:26:35;99516.03;;;19.17;nan
63556;BME280;49700;48.072;7.800;2022-10-31T13:29:25;99509.56;;;19.19;nan
63556;BME280;49700;48.072;7.800;2022-10-31T13:31:53;99504.94;;;19.21;nan
63556;BME280;49700;48.072;7.800;2022-10-31T13:34:28;99508.28;;;19.23;nan
63556;BME280;49700;48.072;7.800;2022-10-31T13:37:03;99508.66;;;19.29;nan
63556;BME280;49700;48.072;7.800;2022-10-31T13:39:51;99502.00;;;19.33;nan
63556;BME280;49700;48.072;7.800;2022-10-31T13:42:43;99494.06;;;19.41;nan
63556;BME280;49700;48.072;7.800;2022-10-31T13:45:29;99477.13;;;19.42;nan
63556;BME280;49700;48.072;7.800;2022-10-31T13:50:40;99470.28;;;19.39;nan
63556;BME280;49700;48.072;7.800;2022-10-31T13:53:18;99463.13;;;19.40;nan
63556;BME280;49700;48.072;7.800;2022-10-31T13:55:46;99462.66;;;19.44;nan
63556;BME280;49700;48.072;7.800;2022-10-31T13:58:27;99449.97;;;19.46;nan
63556;BME280;49700;48.072;7.800;2022-10-31T14:03:25;99446.03;;;19.51;nan
63556;BME280;49700;48.072;7.800;2022-10-31T14:05:54;99438.16;;;19.49;nan
63556;BME280;49700;48.072;7.800;2022-10-31T14:08:22;99434.53;;;19.50;nan
63556;BME280;49700;48.072;7.800;2022-10-31T14:10:51;99425.53;;;19.51;nan
63556;BME280;49700;48.072;7.800;2022-10-31T14:15:57;99410.88;;;19.47;nan
63556;BME280;49700;48.072;7.800;2022-10-31T14:18:33;99411.84;;;19.46;nan
63556;BME280;49700;48.072;7.800;2022-10-31T14:20:59;99407.34;;;19.46;nan
63556;BME280;49700;48.072;7.800;2022-10-31T14:25:54;99405.88;;;19.52;nan
63556;BME280;49700;48.072;7.800;2022-10-31T14:28:20;99423.72;;;19.60;nan
63556;BME280;49700;48.072;7.800;2022-10-31T14:30:56;99423.97;;;19.66;nan
63556;BME280;49700;48.072;7.800;2022-10-31T14:33:24;99417.50;;;19.69;nan
63556;BME280;49700;48.072;7.800;2022-10-31T14:50:04;99404.31;;;19.67;nan
63556;BME280;49700;48.072;7.800;2022-10-31T14:52:36;99407.16;;;19.66;nan
63556;BME280;49700;48.072;7.800;2022-10-31T14:55:06;99405.44;;;19.65;nan
63556;BME280;49700;48.072;7.800;2022-10-31T14:57:36;99407.59;;;19.61;nan
63556;BME280;49700;48.072;7.800;2022-10-31T15:00:12;99408.06;;;19.57;nan
63556;BME280;49700;48.072;7.800;2022-10-31T15:05:16;99401.38;;;19.44;nan
63556;BME280;49700;48.072;7.800;2022-10-31T15:07:52;99401.50;;;19.35;nan
63556;BME280;49700;48.072;7.800;2022-10-31T15:10:31;99398.09;;;19.24;nan
63556;BME280;49700;48.072;7.800;2022-10-31T15:13:18;99399.38;;;19.12;nan
63556;BME280;49700;48.072;7.800;2022-10-31T15:15:44;99399.34;;;19.04;nan
63556;BME280;49700;48.072;7.800;2022-10-31T15:18:19;99399.28;;;18.96;nan
63556;BME280;49700;48.072;7.800;2022-10-31T15:23:28;99401.34;;;18.84;nan
63556;BME280;49700;48.072;7.800;2022-10-31T15:26:03;99404.50;;;18.79;nan
63556;BME280;49700;48.072;7.800;2022-10-31T15:28:29;99420.75;;;18.76;nan
63556;BME280;49700;48.072;7.800;2022-10-31T15:30:59;99422.16;;;18.71;nan
63556;BME280;49700;48.072;7.800;2022-10-31T15:33:30;99408.66;;;18.64;nan
63556;BME280;49700;48.072;7.800;2022-10-31T15:36:00;99406.31;;;18.61;nan
63556;BME280;49700;48.072;7.800;2022-10-31T15:38:27;99419.94;;;18.58;nan
63556;BME280;49700;48.072;7.800;2022-10-31T15:40:59;99412.53;;;18.52;nan
63556;BME280;49700;48.072;7.800;2022-10-31T15:43:32;99405.31;;;18.44;nan
63556;BME280;49700;48.072;7.800;2022-10-31T15:46:00;99414.09;;;18.37;nan
63556;BME280;49700;48.072;7.800;2022-10-31T15:48:25;99413.00;;;18.29;nan